Pickensville, Alabama
Current Conditions -  °F | °C
As of 6:53 PM on Friday 24 Oct 2014 (Local Time) from KTCL Reporting Station
Clear Clear  
Wind Chill: 64°   Ceiling: Unl
Heat Index: 64°   Visibility: 10mi
Dew Point: 47°   Wind: 3mph
Humidity: 54%   Direction: 320°NW
Pressure: 30.06"   Gusts: NA
Location:  33.2267°N, 88.064°W
Report Text: KTCL 242353Z 32003KT 10SM CLR 18/08 A3006 RMK AO2 SLP177 T01780083 10250 20172 53003
Loading
Personal Weather Stations






























Interactive Weather Map
Tropical Storm Tracking
New forecast layout! Learn more

10-Day Weather Forecast

Advertisements
Track Severe Weather on mobile